sensor_id;sensor_type;location;lat;lon;timestamp;temperature;humidity
6538;DHT22;3302;52.508;13.454;2023-08-08T00:01:22;14.40;97.00
6538;DHT22;3302;52.508;13.454;2023-08-08T00:03:48;14.40;97.10
6538;DHT22;3302;52.508;13.454;2023-08-08T00:06:14;14.30;97.20
6538;DHT22;3302;52.508;13.454;2023-08-08T00:08:40;14.30;97.30
6538;DHT22;3302;52.508;13.454;2023-08-08T00:11:06;14.30;97.50
6538;DHT22;3302;52.508;13.454;2023-08-08T00:13:31;14.20;97.70
6538;DHT22;3302;52.508;13.454;2023-08-08T00:15:57;14.20;97.70
6538;DHT22;3302;52.508;13.454;2023-08-08T00:18:23;14.20;97.90
6538;DHT22;3302;52.508;13.454;2023-08-08T00:20:50;14.10;98.00
6538;DHT22;3302;52.508;13.454;2023-08-08T00:23:16;14.10;98.20
6538;DHT22;3302;52.508;13.454;2023-08-08T00:25:41;14.10;98.40
6538;DHT22;3302;52.508;13.454;2023-08-08T00:28:07;14.00;98.40
6538;DHT22;3302;52.508;13.454;2023-08-08T00:30:33;14.00;98.70
6538;DHT22;3302;52.508;13.454;2023-08-08T00:32:59;14.00;98.90
6538;DHT22;3302;52.508;13.454;2023-08-08T00:35:25;13.90;99.10
6538;DHT22;3302;52.508;13.454;2023-08-08T00:37:51;13.90;99.30
6538;DHT22;3302;52.508;13.454;2023-08-08T00:40:16;13.90;99.20
6538;DHT22;3302;52.508;13.454;2023-08-08T00:42:42;13.90;99.30
6538;DHT22;3302;52.508;13.454;2023-08-08T00:45:08;13.80;99.40
6538;DHT22;3302;52.508;13.454;2023-08-08T00:47:34;13.80;99.20
6538;DHT22;3302;52.508;13.454;2023-08-08T00:50:02;13.80;99.20
6538;DHT22;3302;52.508;13.454;2023-08-08T00:52:28;13.80;99.50
6538;DHT22;3302;52.508;13.454;2023-08-08T00:54:54;13.70;99.20
6538;DHT22;3302;52.508;13.454;2023-08-08T00:57:20;13.70;99.30
6538;DHT22;3302;52.508;13.454;2023-08-08T00:59:46;13.70;99.30
6538;DHT22;3302;52.508;13.454;2023-08-08T01:02:12;13.70;99.30
6538;DHT22;3302;52.508;13.454;2023-08-08T01:04:39;13.60;99.10
6538;DHT22;3302;52.508;13.454;2023-08-08T01:07:23;13.60;99.10
6538;DHT22;3302;52.508;13.454;2023-08-08T01:09:57;13.60;99.20
6538;DHT22;3302;52.508;13.454;2023-08-08T01:12:27;13.60;99.20
6538;DHT22;3302;52.508;13.454;2023-08-08T01:14:54;13.60;99.30
6538;DHT22;3302;52.508;13.454;2023-08-08T01:17:21;13.60;99.40
6538;DHT22;3302;52.508;13.454;2023-08-08T01:19:47;13.60;99.30
6538;DHT22;3302;52.508;13.454;2023-08-08T01:22:40;13.50;99.50
6538;DHT22;3302;52.508;13.454;2023-08-08T01:25:09;13.50;99.50
6538;DHT22;3302;52.508;13.454;2023-08-08T01:27:36;13.50;99.30
6538;DHT22;3302;52.508;13.454;2023-08-08T01:30:02;13.40;99.30
6538;DHT22;3302;52.508;13.454;2023-08-08T01:32:29;13.40;99.30
6538;DHT22;3302;52.508;13.454;2023-08-08T01:34:55;13.40;99.30
6538;DHT22;3302;52.508;13.454;2023-08-08T01:37:29;13.40;99.20
6538;DHT22;3302;52.508;13.454;2023-08-08T01:39:58;13.40;99.30
6538;DHT22;3302;52.508;13.454;2023-08-08T01:42:24;13.30;99.20
6538;DHT22;3302;52.508;13.454;2023-08-08T01:44:53;13.30;99.10
6538;DHT22;3302;52.508;13.454;2023-08-08T01:47:19;13.30;99.00
6538;DHT22;3302;52.508;13.454;2023-08-08T01:49:44;13.30;98.90
6538;DHT22;3302;52.508;13.454;2023-08-08T01:52:10;13.30;98.80
6538;DHT22;3302;52.508;13.454;2023-08-08T01:54:36;13.30;98.60
6538;DHT22;3302;52.508;13.454;2023-08-08T01:57:02;13.30;98.40
6538;DHT22;3302;52.508;13.454;2023-08-08T01:59:27;13.30;98.50
6538;DHT22;3302;52.508;13.454;2023-08-08T02:01:53;13.30;98.50
6538;DHT22;3302;52.508;13.454;2023-08-08T02:04:20;13.30;98.20
6538;DHT22;3302;52.508;13.454;2023-08-08T02:06:45;13.30;98.30
6538;DHT22;3302;52.508;13.454;2023-08-08T02:09:11;13.30;98.20
6538;DHT22;3302;52.508;13.454;2023-08-08T02:11:40;13.30;98.20
6538;DHT22;3302;52.508;13.454;2023-08-08T02:14:06;13.30;98.00
6538;DHT22;3302;52.508;13.454;2023-08-08T02:16:31;13.30;97.90
6538;DHT22;3302;52.508;13.454;2023-08-08T02:18:57;13.40;98.00
6538;DHT22;3302;52.508;13.454;2023-08-08T02:21:23;13.30;97.80
6538;DHT22;3302;52.508;13.454;2023-08-08T02:23:49;13.30;97.70
6538;DHT22;3302;52.508;13.454;2023-08-08T02:26:14;13.30;97.80
6538;DHT22;3302;52.508;13.454;2023-08-08T02:28:40;13.30;97.80
6538;DHT22;3302;52.508;13.454;2023-08-08T02:31:06;13.30;98.00
6538;DHT22;3302;52.508;13.454;2023-08-08T02:33:32;13.30;98.20
6538;DHT22;3302;52.508;13.454;2023-08-08T02:35:58;13.30;98.20
6538;DHT22;3302;52.508;13.454;2023-08-08T02:38:24;13.30;98.40
6538;DHT22;3302;52.508;13.454;2023-08-08T02:40:49;13.30;98.60
6538;DHT22;3302;52.508;13.454;2023-08-08T02:43:15;13.30;98.70
6538;DHT22;3302;52.508;13.454;2023-08-08T02:45:42;13.20;98.90
6538;DHT22;3302;52.508;13.454;2023-08-08T02:48:08;13.20;99.20
6538;DHT22;3302;52.508;13.454;2023-08-08T02:50:33;13.20;99.40
6538;DHT22;3302;52.508;13.454;2023-08-08T02:52:59;13.20;99.50
6538;DHT22;3302;52.508;13.454;2023-08-08T02:55:25;13.10;99.70
6538;DHT22;3302;52.508;13.454;2023-08-08T02:57:51;13.10;99.90
6538;DHT22;3302;52.508;13.454;2023-08-08T03:00:17;13.10;99.90
6538;DHT22;3302;52.508;13.454;2023-08-08T03:02:43;13.00;99.90
6538;DHT22;3302;52.508;13.454;2023-08-08T03:05:09;13.10;99.90
6538;DHT22;3302;52.508;13.454;2023-08-08T03:07:35;13.10;99.90
6538;DHT22;3302;52.508;13.454;2023-08-08T03:10:00;13.10;99.90
6538;DHT22;3302;52.508;13.454;2023-08-08T03:12:26;13.00;99.90
6538;DHT22;3302;52.508;13.454;2023-08-08T03:14:52;13.00;99.90
6538;DHT22;3302;52.508;13.454;2023-08-08T03:17:18;13.00;99.90
6538;DHT22;3302;52.508;13.454;2023-08-08T03:19:43;13.00;99.90
6538;DHT22;3302;52.508;13.454;2023-08-08T03:22:09;13.00;99.90
6538;DHT22;3302;52.508;13.454;2023-08-08T03:24:35;13.00;99.90
6538;DHT22;3302;52.508;13.454;2023-08-08T03:27:01;13.00;99.90
6538;DHT22;3302;52.508;13.454;2023-08-08T03:29:26;13.00;99.90
6538;DHT22;3302;52.508;13.454;2023-08-08T03:31:52;13.00;99.90
6538;DHT22;3302;52.508;13.454;2023-08-08T03:34:18;13.00;99.90
6538;DHT22;3302;52.508;13.454;2023-08-08T03:36:45;13.00;99.90
6538;DHT22;3302;52.508;13.454;2023-08-08T03:39:11;13.00;99.90
6538;DHT22;3302;52.508;13.454;2023-08-08T03:41:36;13.00;99.90
6538;DHT22;3302;52.508;13.454;2023-08-08T03:44:03;13.00;99.90
6538;DHT22;3302;52.508;13.454;2023-08-08T03:46:29;13.00;99.90
6538;DHT22;3302;52.508;13.454;2023-08-08T03:48:55;13.00;99.90
6538;DHT22;3302;52.508;13.454;2023-08-08T03:51:20;13.00;99.90
6538;DHT22;3302;52.508;13.454;2023-08-08T03:53:46;13.00;99.90
6538;DHT22;3302;52.508;13.454;2023-08-08T03:56:12;13.00;99.90
6538;DHT22;3302;52.508;13.454;2023-08-08T03:58:38;13.10;99.90
6538;DHT22;3302;52.508;13.454;2023-08-08T04:01:04;13.00;99.90
6538;DHT22;3302;52.508;13.454;2023-08-08T04:03:31;13.10;99.90
6538;DHT22;3302;52.508;13.454;2023-08-08T04:05:57;13.10;99.90
6538;DHT22;3302;52.508;13.454;2023-08-08T04:08:23;13.10;99.90
6538;DHT22;3302;52.508;13.454;2023-08-08T04:10:49;13.10;99.90
6538;DHT22;3302;52.508;13.454;2023-08-08T04:13:14;13.10;99.90
6538;DHT22;3302;52.508;13.454;2023-08-08T04:15:40;13.10;99.90
6538;DHT22;3302;52.508;13.454;2023-08-08T04:18:06;13.10;99.90
6538;DHT22;3302;52.508;13.454;2023-08-08T04:20:33;13.20;99.90
6538;DHT22;3302;52.508;13.454;2023-08-08T04:23:01;13.20;99.90
6538;DHT22;3302;52.508;13.454;2023-08-08T04:25:27;13.20;99.90
6538;DHT22;3302;52.508;13.454;2023-08-08T04:27:53;13.20;99.90
6538;DHT22;3302;52.508;13.454;2023-08-08T04:30:19;13.20;99.90
6538;DHT22;3302;52.508;13.454;2023-08-08T04:32:45;13.20;99.90
6538;DHT22;3302;52.508;13.454;2023-08-08T04:35:11;13.20;99.90
6538;DHT22;3302;52.508;13.454;2023-08-08T04:37:37;13.20;99.90
6538;DHT22;3302;52.508;13.454;2023-08-08T04:40:03;13.20;99.90
6538;DHT22;3302;52.508;13.454;2023-08-08T04:42:30;13.20;99.90
6538;DHT22;3302;52.508;13.454;2023-08-08T04:44:55;13.20;99.90
6538;DHT22;3302;52.508;13.454;2023-08-08T04:47:21;13.30;99.90
6538;DHT22;3302;52.508;13.454;2023-08-08T04:49:47;13.40;99.90
6538;DHT22;3302;52.508;13.454;2023-08-08T04:52:13;13.40;99.90
6538;DHT22;3302;52.508;13.454;2023-08-08T04:54:39;13.40;99.90
6538;DHT22;3302;52.508;13.454;2023-08-08T04:57:05;13.50;99.90
6538;DHT22;3302;52.508;13.454;2023-08-08T04:59:31;13.50;99.90
6538;DHT22;3302;52.508;13.454;2023-08-08T05:01:57;13.50;99.90
6538;DHT22;3302;52.508;13.454;2023-08-08T05:04:24;13.50;99.90
6538;DHT22;3302;52.508;13.454;2023-08-08T05:06:50;13.50;99.90
6538;DHT22;3302;52.508;13.454;2023-08-08T05:09:15;13.50;99.90
6538;DHT22;3302;52.508;13.454;2023-08-08T05:11:41;13.50;99.90
6538;DHT22;3302;52.508;13.454;2023-08-08T05:14:07;13.60;99.90
6538;DHT22;3302;52.508;13.454;2023-08-08T05:16:33;13.60;99.90
6538;DHT22;3302;52.508;13.454;2023-08-08T05:18:59;13.60;99.90
6538;DHT22;3302;52.508;13.454;2023-08-08T05:21:24;13.60;99.90
6538;DHT22;3302;52.508;13.454;2023-08-08T05:23:50;13.60;99.90
6538;DHT22;3302;52.508;13.454;2023-08-08T05:26:16;13.60;99.90
6538;DHT22;3302;52.508;13.454;2023-08-08T05:28:42;13.50;99.90
6538;DHT22;3302;52.508;13.454;2023-08-08T05:31:07;13.60;99.90
6538;DHT22;3302;52.508;13.454;2023-08-08T05:33:33;13.60;99.90
6538;DHT22;3302;52.508;13.454;2023-08-08T05:35:59;13.60;99.90
6538;DHT22;3302;52.508;13.454;2023-08-08T05:38:25;13.80;99.90
6538;DHT22;3302;52.508;13.454;2023-08-08T05:40:50;13.80;99.90
6538;DHT22;3302;52.508;13.454;2023-08-08T05:43:17;13.80;99.90
6538;DHT22;3302;52.508;13.454;2023-08-08T05:45:47;13.90;99.90
6538;DHT22;3302;52.508;13.454;2023-08-08T05:48:13;14.00;99.90
6538;DHT22;3302;52.508;13.454;2023-08-08T05:50:39;14.10;99.90
6538;DHT22;3302;52.508;13.454;2023-08-08T05:53:05;14.20;99.90
6538;DHT22;3302;52.508;13.454;2023-08-08T05:55:31;14.20;99.90
6538;DHT22;3302;52.508;13.454;2023-08-08T05:57:57;14.30;99.90
6538;DHT22;3302;52.508;13.454;2023-08-08T06:00:23;14.20;99.90
6538;DHT22;3302;52.508;13.454;2023-08-08T06:02:50;14.20;99.90
6538;DHT22;3302;52.508;13.454;2023-08-08T06:05:21;14.30;99.90
6538;DHT22;3302;52.508;13.454;2023-08-08T06:07:47;14.30;99.90
6538;DHT22;3302;52.508;13.454;2023-08-08T06:10:13;14.40;99.90
6538;DHT22;3302;52.508;13.454;2023-08-08T06:12:39;14.50;99.90
6538;DHT22;3302;52.508;13.454;2023-08-08T06:15:05;14.50;99.90
6538;DHT22;3302;52.508;13.454;2023-08-08T06:17:31;14.50;99.90
6538;DHT22;3302;52.508;13.454;2023-08-08T06:19:58;14.50;99.90
6538;DHT22;3302;52.508;13.454;2023-08-08T06:22:24;14.60;99.90
6538;DHT22;3302;52.508;13.454;2023-08-08T06:24:50;14.60;99.90
6538;DHT22;3302;52.508;13.454;2023-08-08T06:27:16;14.60;99.90
6538;DHT22;3302;52.508;13.454;2023-08-08T06:29:42;14.60;99.90
6538;DHT22;3302;52.508;13.454;2023-08-08T06:32:08;14.60;99.90
6538;DHT22;3302;52.508;13.454;2023-08-08T06:34:34;14.90;99.90
6538;DHT22;3302;52.508;13.454;2023-08-08T06:37:00;14.90;99.90
6538;DHT22;3302;52.508;13.454;2023-08-08T06:39:26;14.80;99.90
6538;DHT22;3302;52.508;13.454;2023-08-08T06:41:51;14.90;99.90
6538;DHT22;3302;52.508;13.454;2023-08-08T06:44:17;14.90;99.90
6538;DHT22;3302;52.508;13.454;2023-08-08T06:46:43;14.90;99.90
6538;DHT22;3302;52.508;13.454;2023-08-08T06:49:09;14.90;99.90
6538;DHT22;3302;52.508;13.454;2023-08-08T06:51:35;15.00;99.90
6538;DHT22;3302;52.508;13.454;2023-08-08T06:54:01;15.00;99.90
6538;DHT22;3302;52.508;13.454;2023-08-08T06:56:27;15.00;99.90
6538;DHT22;3302;52.508;13.454;2023-08-08T06:58:53;14.90;99.90
6538;DHT22;3302;52.508;13.454;2023-08-08T07:01:19;15.00;99.90
6538;DHT22;3302;52.508;13.454;2023-08-08T07:03:45;15.00;99.90
6538;DHT22;3302;52.508;13.454;2023-08-08T07:06:17;15.10;99.90
6538;DHT22;3302;52.508;13.454;2023-08-08T07:08:43;15.20;99.90
6538;DHT22;3302;52.508;13.454;2023-08-08T07:11:09;15.20;99.90
6538;DHT22;3302;52.508;13.454;2023-08-08T07:13:35;15.00;99.90
6538;DHT22;3302;52.508;13.454;2023-08-08T07:16:01;15.00;99.90
6538;DHT22;3302;52.508;13.454;2023-08-08T07:18:26;15.00;99.90
6538;DHT22;3302;52.508;13.454;2023-08-08T07:20:52;15.10;99.90
6538;DHT22;3302;52.508;13.454;2023-08-08T07:23:18;15.30;99.90
6538;DHT22;3302;52.508;13.454;2023-08-08T07:25:45;15.30;99.90
6538;DHT22;3302;52.508;13.454;2023-08-08T07:28:12;15.20;99.90
6538;DHT22;3302;52.508;13.454;2023-08-08T07:30:40;15.30;99.90
6538;DHT22;3302;52.508;13.454;2023-08-08T07:33:07;15.40;99.90
6538;DHT22;3302;52.508;13.454;2023-08-08T07:35:35;15.60;99.90
6538;DHT22;3302;52.508;13.454;2023-08-08T07:38:01;15.50;99.70
6538;DHT22;3302;52.508;13.454;2023-08-08T07:40:27;15.30;99.70
6538;DHT22;3302;52.508;13.454;2023-08-08T07:42:53;15.40;99.90
6538;DHT22;3302;52.508;13.454;2023-08-08T07:45:19;15.50;99.30
6538;DHT22;3302;52.508;13.454;2023-08-08T07:47:45;15.60;99.20
6538;DHT22;3302;52.508;13.454;2023-08-08T07:50:11;15.80;99.00
6538;DHT22;3302;52.508;13.454;2023-08-08T07:52:38;16.00;98.80
6538;DHT22;3302;52.508;13.454;2023-08-08T07:55:04;16.10;98.60
6538;DHT22;3302;52.508;13.454;2023-08-08T07:57:32;16.00;98.50
6538;DHT22;3302;52.508;13.454;2023-08-08T08:00:00;15.80;98.10
6538;DHT22;3302;52.508;13.454;2023-08-08T08:02:32;15.70;98.90
6538;DHT22;3302;52.508;13.454;2023-08-08T08:04:59;15.80;98.70
6538;DHT22;3302;52.508;13.454;2023-08-08T08:07:25;15.70;98.90
6538;DHT22;3302;52.508;13.454;2023-08-08T08:09:51;15.80;99.00
6538;DHT22;3302;52.508;13.454;2023-08-08T08:12:17;15.70;99.00
6538;DHT22;3302;52.508;13.454;2023-08-08T08:14:42;15.70;98.80
6538;DHT22;3302;52.508;13.454;2023-08-08T08:17:08;15.80;98.80
6538;DHT22;3302;52.508;13.454;2023-08-08T08:19:34;16.10;98.20
6538;DHT22;3302;52.508;13.454;2023-08-08T08:22:00;16.10;98.20
6538;DHT22;3302;52.508;13.454;2023-08-08T08:24:26;16.10;97.80
6538;DHT22;3302;52.508;13.454;2023-08-08T08:26:51;16.20;97.90
6538;DHT22;3302;52.508;13.454;2023-08-08T08:29:17;16.20;97.50
6538;DHT22;3302;52.508;13.454;2023-08-08T08:31:43;16.40;97.70
6538;DHT22;3302;52.508;13.454;2023-08-08T08:34:09;16.30;97.60
6538;DHT22;3302;52.508;13.454;2023-08-08T08:36:35;16.50;96.90
6538;DHT22;3302;52.508;13.454;2023-08-08T08:39:01;16.70;96.50
6538;DHT22;3302;52.508;13.454;2023-08-08T08:41:28;16.50;96.40
6538;DHT22;3302;52.508;13.454;2023-08-08T08:43:54;16.50;96.50
6538;DHT22;3302;52.508;13.454;2023-08-08T08:46:21;16.60;96.30
6538;DHT22;3302;52.508;13.454;2023-08-08T08:48:49;16.40;95.50
6538;DHT22;3302;52.508;13.454;2023-08-08T08:51:15;16.50;95.90
6538;DHT22;3302;52.508;13.454;2023-08-08T08:53:42;16.60;96.00
6538;DHT22;3302;52.508;13.454;2023-08-08T08:56:15;16.50;95.90
6538;DHT22;3302;52.508;13.454;2023-08-08T08:58:42;16.60;95.80
6538;DHT22;3302;52.508;13.454;2023-08-08T09:01:09;16.80;95.80
6538;DHT22;3302;52.508;13.454;2023-08-08T09:03:36;16.80;96.10
6538;DHT22;3302;52.508;13.454;2023-08-08T09:06:04;16.90;95.90
6538;DHT22;3302;52.508;13.454;2023-08-08T09:08:30;16.90;95.80
6538;DHT22;3302;52.508;13.454;2023-08-08T09:10:56;16.90;95.50
6538;DHT22;3302;52.508;13.454;2023-08-08T09:13:23;16.90;95.20
6538;DHT22;3302;52.508;13.454;2023-08-08T09:15:51;17.10;95.20
6538;DHT22;3302;52.508;13.454;2023-08-08T09:18:17;17.20;94.80
6538;DHT22;3302;52.508;13.454;2023-08-08T09:20:49;17.10;95.30
6538;DHT22;3302;52.508;13.454;2023-08-08T09:23:15;17.00;94.60
6538;DHT22;3302;52.508;13.454;2023-08-08T09:25:41;17.10;94.90
6538;DHT22;3302;52.508;13.454;2023-08-08T09:28:07;17.20;95.10
6538;DHT22;3302;52.508;13.454;2023-08-08T09:30:33;17.40;94.70
6538;DHT22;3302;52.508;13.454;2023-08-08T09:33:00;17.40;94.10
6538;DHT22;3302;52.508;13.454;2023-08-08T09:35:30;17.50;94.00
6538;DHT22;3302;52.508;13.454;2023-08-08T09:37:56;17.40;93.60
6538;DHT22;3302;52.508;13.454;2023-08-08T09:40:23;17.50;93.00
6538;DHT22;3302;52.508;13.454;2023-08-08T09:42:51;17.70;92.60
6538;DHT22;3302;52.508;13.454;2023-08-08T09:45:19;18.00;92.30
6538;DHT22;3302;52.508;13.454;2023-08-08T09:47:45;17.80;92.10
6538;DHT22;3302;52.508;13.454;2023-08-08T09:50:13;17.80;92.40
6538;DHT22;3302;52.508;13.454;2023-08-08T09:52:38;18.00;91.90
6538;DHT22;3302;52.508;13.454;2023-08-08T09:55:05;18.00;91.50
6538;DHT22;3302;52.508;13.454;2023-08-08T09:57:32;18.10;91.90
6538;DHT22;3302;52.508;13.454;2023-08-08T09:59:58;17.70;91.10
6538;DHT22;3302;52.508;13.454;2023-08-08T10:02:24;17.70;92.00
6538;DHT22;3302;52.508;13.454;2023-08-08T10:04:50;17.60;91.80
6538;DHT22;3302;52.508;13.454;2023-08-08T10:07:18;17.50;91.50
6538;DHT22;3302;52.508;13.454;2023-08-08T10:09:44;17.30;93.80
6538;DHT22;3302;52.508;13.454;2023-08-08T10:12:11;16.80;96.20
6538;DHT22;3302;52.508;13.454;2023-08-08T10:14:38;16.00;99.90
6538;DHT22;3302;52.508;13.454;2023-08-08T10:17:07;16.10;99.90
6538;DHT22;3302;52.508;13.454;2023-08-08T10:19:33;16.30;99.90
6538;DHT22;3302;52.508;13.454;2023-08-08T10:22:03;16.00;99.90
6538;DHT22;3302;52.508;13.454;2023-08-08T10:24:35;16.10;99.90
6538;DHT22;3302;52.508;13.454;2023-08-08T10:27:03;16.20;99.90
6538;DHT22;3302;52.508;13.454;2023-08-08T10:29:32;16.30;99.90
6538;DHT22;3302;52.508;13.454;2023-08-08T10:32:05;16.50;99.20
6538;DHT22;3302;52.508;13.454;2023-08-08T10:34:42;16.60;98.90
6538;DHT22;3302;52.508;13.454;2023-08-08T10:37:12;16.90;97.00
6538;DHT22;3302;52.508;13.454;2023-08-08T10:39:54;17.10;96.40
6538;DHT22;3302;52.508;13.454;2023-08-08T10:42:22;17.30;97.20
6538;DHT22;3302;52.508;13.454;2023-08-08T10:44:56;17.50;96.60
6538;DHT22;3302;52.508;13.454;2023-08-08T10:47:36;17.60;94.70
6538;DHT22;3302;52.508;13.454;2023-08-08T10:50:14;17.80;94.10
6538;DHT22;3302;52.508;13.454;2023-08-08T10:52:51;17.70;93.40
6538;DHT22;3302;52.508;13.454;2023-08-08T10:55:24;17.50;91.70
6538;DHT22;3302;52.508;13.454;2023-08-08T11:00:25;16.70;96.10
6538;DHT22;3302;52.508;13.454;2023-08-08T11:02:53;16.60;98.90
6538;DHT22;3302;52.508;13.454;2023-08-08T11:05:20;16.60;99.10
6538;DHT22;3302;52.508;13.454;2023-08-08T11:07:47;16.50;99.90
6538;DHT22;3302;52.508;13.454;2023-08-08T11:10:13;16.50;96.60
6538;DHT22;3302;52.508;13.454;2023-08-08T11:12:38;16.60;97.30
6538;DHT22;3302;52.508;13.454;2023-08-08T11:15:05;16.90;97.10
6538;DHT22;3302;52.508;13.454;2023-08-08T11:17:32;17.10;95.10
6538;DHT22;3302;52.508;13.454;2023-08-08T11:19:58;17.20;94.90
6538;DHT22;3302;52.508;13.454;2023-08-08T11:22:24;17.30;94.00
6538;DHT22;3302;52.508;13.454;2023-08-08T11:24:50;17.50;94.80
6538;DHT22;3302;52.508;13.454;2023-08-08T11:27:16;17.60;93.40
6538;DHT22;3302;52.508;13.454;2023-08-08T11:29:51;17.70;92.40
6538;DHT22;3302;52.508;13.454;2023-08-08T11:32:17;17.70;92.20
6538;DHT22;3302;52.508;13.454;2023-08-08T11:34:43;17.10;96.90
6538;DHT22;3302;52.508;13.454;2023-08-08T11:37:11;16.70;96.80
6538;DHT22;3302;52.508;13.454;2023-08-08T11:39:41;16.60;96.70
6538;DHT22;3302;52.508;13.454;2023-08-08T11:42:07;16.40;95.00
6538;DHT22;3302;52.508;13.454;2023-08-08T11:44:33;16.30;96.10
6538;DHT22;3302;52.508;13.454;2023-08-08T11:47:02;16.40;97.30
6538;DHT22;3302;52.508;13.454;2023-08-08T11:49:28;16.00;97.10
6538;DHT22;3302;52.508;13.454;2023-08-08T11:51:54;16.00;96.90
6538;DHT22;3302;52.508;13.454;2023-08-08T11:54:27;16.00;95.80
6538;DHT22;3302;52.508;13.454;2023-08-08T11:56:54;16.10;95.90
6538;DHT22;3302;52.508;13.454;2023-08-08T11:59:20;16.40;95.50
6538;DHT22;3302;52.508;13.454;2023-08-08T12:01:46;16.50;95.60
6538;DHT22;3302;52.508;13.454;2023-08-08T12:04:11;16.40;96.60
6538;DHT22;3302;52.508;13.454;2023-08-08T12:06:38;16.50;96.30
6538;DHT22;3302;52.508;13.454;2023-08-08T12:09:13;16.50;96.40
6538;DHT22;3302;52.508;13.454;2023-08-08T12:11:39;16.80;96.90
6538;DHT22;3302;52.508;13.454;2023-08-08T12:14:07;17.00;96.70
6538;DHT22;3302;52.508;13.454;2023-08-08T12:16:34;17.30;95.70
6538;DHT22;3302;52.508;13.454;2023-08-08T12:19:04;17.40;95.60
6538;DHT22;3302;52.508;13.454;2023-08-08T12:21:32;17.50;94.90
6538;DHT22;3302;52.508;13.454;2023-08-08T12:23:58;17.60;93.80
6538;DHT22;3302;52.508;13.454;2023-08-08T12:26:24;17.70;93.80
6538;DHT22;3302;52.508;13.454;2023-08-08T12:28:50;18.00;92.90
6538;DHT22;3302;52.508;13.454;2023-08-08T12:31:18;17.90;92.30
6538;DHT22;3302;52.508;13.454;2023-08-08T12:33:44;18.10;92.60
6538;DHT22;3302;52.508;13.454;2023-08-08T12:36:11;18.20;92.20
6538;DHT22;3302;52.508;13.454;2023-08-08T12:38:37;18.30;91.50
6538;DHT22;3302;52.508;13.454;2023-08-08T12:41:03;18.10;91.40
6538;DHT22;3302;52.508;13.454;2023-08-08T12:43:29;18.20;92.10
6538;DHT22;3302;52.508;13.454;2023-08-08T12:45:55;18.20;92.80
6538;DHT22;3302;52.508;13.454;2023-08-08T12:48:21;17.70;93.20
6538;DHT22;3302;52.508;13.454;2023-08-08T12:50:47;17.30;94.30
6538;DHT22;3302;52.508;13.454;2023-08-08T12:53:13;17.50;93.20
6538;DHT22;3302;52.508;13.454;2023-08-08T12:55:39;17.60;93.70
6538;DHT22;3302;52.508;13.454;2023-08-08T12:58:05;17.80;93.30
6538;DHT22;3302;52.508;13.454;2023-08-08T13:00:31;17.70;93.50
6538;DHT22;3302;52.508;13.454;2023-08-08T13:02:56;18.00;94.20
6538;DHT22;3302;52.508;13.454;2023-08-08T13:05:22;18.10;93.40
6538;DHT22;3302;52.508;13.454;2023-08-08T13:07:48;18.00;93.10
6538;DHT22;3302;52.508;13.454;2023-08-08T13:10:14;17.70;93.80
6538;DHT22;3302;52.508;13.454;2023-08-08T13:12:40;17.70;94.60
6538;DHT22;3302;52.508;13.454;2023-08-08T13:15:06;17.90;95.30
6538;DHT22;3302;52.508;13.454;2023-08-08T13:17:33;18.00;94.00
6538;DHT22;3302;52.508;13.454;2023-08-08T13:19:58;18.30;94.00
6538;DHT22;3302;52.508;13.454;2023-08-08T13:22:24;18.10;93.50
6538;DHT22;3302;52.508;13.454;2023-08-08T13:24:50;18.10;93.20
6538;DHT22;3302;52.508;13.454;2023-08-08T13:27:16;18.20;93.10
6538;DHT22;3302;52.508;13.454;2023-08-08T13:29:41;18.50;93.20
6538;DHT22;3302;52.508;13.454;2023-08-08T13:32:07;18.60;91.80
6538;DHT22;3302;52.508;13.454;2023-08-08T13:34:33;18.80;91.70
6538;DHT22;3302;52.508;13.454;2023-08-08T13:36:59;18.80;91.90
6538;DHT22;3302;52.508;13.454;2023-08-08T13:39:25;18.70;91.10
6538;DHT22;3302;52.508;13.454;2023-08-08T13:41:51;18.60;90.80
6538;DHT22;3302;52.508;13.454;2023-08-08T13:44:16;18.70;91.10
6538;DHT22;3302;52.508;13.454;2023-08-08T13:46:42;18.70;90.90
6538;DHT22;3302;52.508;13.454;2023-08-08T13:49:08;16.90;99.90
6538;DHT22;3302;52.508;13.454;2023-08-08T13:51:34;15.20;99.90
6538;DHT22;3302;52.508;13.454;2023-08-08T13:54:00;14.80;99.90
6538;DHT22;3302;52.508;13.454;2023-08-08T13:56:26;14.20;99.90
6538;DHT22;3302;52.508;13.454;2023-08-08T13:58:51;14.20;99.90
6538;DHT22;3302;52.508;13.454;2023-08-08T14:01:17;14.00;99.90
6538;DHT22;3302;52.508;13.454;2023-08-08T14:03:44;14.20;99.90
6538;DHT22;3302;52.508;13.454;2023-08-08T14:06:10;14.30;99.90
6538;DHT22;3302;52.508;13.454;2023-08-08T14:08:35;14.60;99.90
6538;DHT22;3302;52.508;13.454;2023-08-08T14:11:01;14.80;99.90
6538;DHT22;3302;52.508;13.454;2023-08-08T14:13:27;15.00;99.90
6538;DHT22;3302;52.508;13.454;2023-08-08T14:15:53;15.30;99.90
6538;DHT22;3302;52.508;13.454;2023-08-08T14:18:19;15.60;99.90
6538;DHT22;3302;52.508;13.454;2023-08-08T14:20:45;15.80;99.90
6538;DHT22;3302;52.508;13.454;2023-08-08T14:23:11;15.90;99.90
6538;DHT22;3302;52.508;13.454;2023-08-08T14:25:36;15.90;99.90
6538;DHT22;3302;52.508;13.454;2023-08-08T14:28:02;16.20;99.90
6538;DHT22;3302;52.508;13.454;2023-08-08T14:30:29;16.40;99.90
6538;DHT22;3302;52.508;13.454;2023-08-08T14:32:56;16.70;99.90
6538;DHT22;3302;52.508;13.454;2023-08-08T14:35:22;16.70;99.90
6538;DHT22;3302;52.508;13.454;2023-08-08T14:37:48;17.00;99.90
6538;DHT22;3302;52.508;13.454;2023-08-08T14:40:14;17.30;99.90
6538;DHT22;3302;52.508;13.454;2023-08-08T14:42:39;17.40;99.90
6538;DHT22;3302;52.508;13.454;2023-08-08T14:45:07;17.60;99.90
6538;DHT22;3302;52.508;13.454;2023-08-08T14:47:33;17.80;97.00
6538;DHT22;3302;52.508;13.454;2023-08-08T14:49:59;18.10;95.60
6538;DHT22;3302;52.508;13.454;2023-08-08T14:52:25;18.20;95.10
6538;DHT22;3302;52.508;13.454;2023-08-08T14:54:51;18.30;95.30
6538;DHT22;3302;52.508;13.454;2023-08-08T14:57:17;18.60;94.00
6538;DHT22;3302;52.508;13.454;2023-08-08T14:59:43;18.60;93.60
6538;DHT22;3302;52.508;13.454;2023-08-08T15:02:08;18.50;93.90
6538;DHT22;3302;52.508;13.454;2023-08-08T15:04:34;18.70;92.10
6538;DHT22;3302;52.508;13.454;2023-08-08T15:07:00;19.00;93.10
6538;DHT22;3302;52.508;13.454;2023-08-08T15:09:26;19.00;92.00
6538;DHT22;3302;52.508;13.454;2023-08-08T15:11:52;18.80;92.00
6538;DHT22;3302;52.508;13.454;2023-08-08T15:14:18;18.70;92.30
6538;DHT22;3302;52.508;13.454;2023-08-08T15:16:49;18.60;91.30
6538;DHT22;3302;52.508;13.454;2023-08-08T15:19:15;18.50;91.50
6538;DHT22;3302;52.508;13.454;2023-08-08T15:21:42;18.60;92.40
6538;DHT22;3302;52.508;13.454;2023-08-08T15:24:08;18.70;93.20
6538;DHT22;3302;52.508;13.454;2023-08-08T15:26:35;18.40;91.70
6538;DHT22;3302;52.508;13.454;2023-08-08T15:29:01;18.30;92.90
6538;DHT22;3302;52.508;13.454;2023-08-08T15:31:26;18.20;94.00
6538;DHT22;3302;52.508;13.454;2023-08-08T15:33:52;18.00;93.20
6538;DHT22;3302;52.508;13.454;2023-08-08T15:36:18;17.80;95.70
6538;DHT22;3302;52.508;13.454;2023-08-08T15:38:44;17.60;97.10
6538;DHT22;3302;52.508;13.454;2023-08-08T15:41:10;17.20;97.90
6538;DHT22;3302;52.508;13.454;2023-08-08T15:43:38;15.20;99.90